sensor_id;sensor_type;location;lat;lon;timestamp;P1;durP1;ratioP1;P2;durP2;ratioP2
71572;SDS011;59408;51.032;9.410;2023-04-03T00:00:35;4.63;;;1.27;;
71572;SDS011;59408;51.032;9.410;2023-04-03T00:03:02;4.43;;;1.00;;
71572;SDS011;59408;51.032;9.410;2023-04-03T00:05:29;4.93;;;1.15;;
71572;SDS011;59408;51.032;9.410;2023-04-03T00:07:55;5.93;;;1.20;;
71572;SDS011;59408;51.032;9.410;2023-04-03T00:10:22;4.90;;;1.23;;
71572;SDS011;59408;51.032;9.410;2023-04-03T00:12:49;5.32;;;1.10;;
71572;SDS011;59408;51.032;9.410;2023-04-03T00:15:17;4.32;;;1.20;;
71572;SDS011;59408;51.032;9.410;2023-04-03T00:17:44;5.07;;;1.13;;
71572;SDS011;59408;51.032;9.410;2023-04-03T00:20:11;4.50;;;1.17;;
71572;SDS011;59408;51.032;9.410;2023-04-03T00:22:38;5.40;;;1.10;;
71572;SDS011;59408;51.032;9.410;2023-04-03T00:25:04;4.97;;;1.23;;
71572;SDS011;59408;51.032;9.410;2023-04-03T00:27:32;3.80;;;1.08;;
71572;SDS011;59408;51.032;9.410;2023-04-03T00:29:58;5.40;;;1.33;;
71572;SDS011;59408;51.032;9.410;2023-04-03T00:32:26;5.07;;;1.20;;
71572;SDS011;59408;51.032;9.410;2023-04-03T00:34:53;4.72;;;0.90;;
71572;SDS011;59408;51.032;9.410;2023-04-03T00:37:20;3.50;;;1.00;;
71572;SDS011;59408;51.032;9.410;2023-04-03T00:39:46;6.63;;;1.30;;
71572;SDS011;59408;51.032;9.410;2023-04-03T00:42:13;4.63;;;1.27;;
71572;SDS011;59408;51.032;9.410;2023-04-03T00:47:45;4.57;;;1.20;;
71572;SDS011;59408;51.032;9.410;2023-04-03T00:50:11;4.30;;;1.20;;
71572;SDS011;59408;51.032;9.410;2023-04-03T00:52:38;4.30;;;1.10;;
71572;SDS011;59408;51.032;9.410;2023-04-03T00:55:06;4.60;;;1.33;;
71572;SDS011;59408;51.032;9.410;2023-04-03T00:57:35;6.23;;;1.27;;
71572;SDS011;59408;51.032;9.410;2023-04-03T01:00:04;4.57;;;1.40;;
71572;SDS011;59408;51.032;9.410;2023-04-03T01:02:34;4.50;;;1.20;;
71572;SDS011;59408;51.032;9.410;2023-04-03T01:05:02;4.80;;;1.20;;
71572;SDS011;59408;51.032;9.410;2023-04-03T01:07:30;4.22;;;1.40;;
71572;SDS011;59408;51.032;9.410;2023-04-03T01:09:58;3.77;;;1.30;;
71572;SDS011;59408;51.032;9.410;2023-04-03T01:12:28;4.70;;;1.52;;
71572;SDS011;59408;51.032;9.410;2023-04-03T01:14:57;5.47;;;1.20;;
71572;SDS011;59408;51.032;9.410;2023-04-03T01:17:29;4.22;;;1.05;;
71572;SDS011;59408;51.032;9.410;2023-04-03T01:20:09;3.75;;;1.20;;
71572;SDS011;59408;51.032;9.410;2023-04-03T01:22:52;4.23;;;1.60;;
71572;SDS011;59408;51.032;9.410;2023-04-03T01:25:25;5.43;;;1.23;;
71572;SDS011;59408;51.032;9.410;2023-04-03T01:27:52;4.60;;;1.30;;
71572;SDS011;59408;51.032;9.410;2023-04-03T01:30:20;4.20;;;1.02;;
71572;SDS011;59408;51.032;9.410;2023-04-03T01:32:51;5.40;;;1.55;;
71572;SDS011;59408;51.032;9.410;2023-04-03T01:35:17;4.97;;;1.20;;
71572;SDS011;59408;51.032;9.410;2023-04-03T01:37:44;5.95;;;1.23;;
71572;SDS011;59408;51.032;9.410;2023-04-03T01:40:11;5.35;;;1.73;;
71572;SDS011;59408;51.032;9.410;2023-04-03T01:42:37;5.20;;;1.40;;
71572;SDS011;59408;51.032;9.410;2023-04-03T01:45:04;5.45;;;1.33;;
71572;SDS011;59408;51.032;9.410;2023-04-03T01:47:31;3.90;;;1.07;;
71572;SDS011;59408;51.032;9.410;2023-04-03T01:50:00;4.30;;;1.33;;
71572;SDS011;59408;51.032;9.410;2023-04-03T01:52:26;4.25;;;1.42;;
71572;SDS011;59408;51.032;9.410;2023-04-03T01:54:53;4.78;;;1.48;;
71572;SDS011;59408;51.032;9.410;2023-04-03T01:57:20;5.90;;;1.77;;
71572;SDS011;59408;51.032;9.410;2023-04-03T01:59:46;5.50;;;1.40;;
71572;SDS011;59408;51.032;9.410;2023-04-03T02:02:13;5.47;;;1.50;;
71572;SDS011;59408;51.032;9.410;2023-04-03T02:04:39;6.55;;;1.70;;
71572;SDS011;59408;51.032;9.410;2023-04-03T02:07:07;5.80;;;1.52;;
71572;SDS011;59408;51.032;9.410;2023-04-03T02:09:34;7.60;;;1.80;;
71572;SDS011;59408;51.032;9.410;2023-04-03T02:12:01;3.90;;;1.20;;
71572;SDS011;59408;51.032;9.410;2023-04-03T02:14:27;4.50;;;1.33;;
71572;SDS011;59408;51.032;9.410;2023-04-03T02:16:54;5.05;;;1.17;;
71572;SDS011;59408;51.032;9.410;2023-04-03T02:19:21;4.45;;;1.50;;
71572;SDS011;59408;51.032;9.410;2023-04-03T02:21:48;5.25;;;1.65;;
71572;SDS011;59408;51.032;9.410;2023-04-03T02:24:16;6.97;;;1.60;;
71572;SDS011;59408;51.032;9.410;2023-04-03T02:26:43;5.13;;;1.70;;
71572;SDS011;59408;51.032;9.410;2023-04-03T02:29:09;4.82;;;1.52;;
71572;SDS011;59408;51.032;9.410;2023-04-03T02:31:36;5.60;;;1.23;;
71572;SDS011;59408;51.032;9.410;2023-04-03T02:34:02;5.05;;;1.50;;
71572;SDS011;59408;51.032;9.410;2023-04-03T02:36:29;5.10;;;1.30;;
71572;SDS011;59408;51.032;9.410;2023-04-03T02:38:58;4.70;;;1.40;;
71572;SDS011;59408;51.032;9.410;2023-04-03T02:41:26;8.55;;;1.30;;
71572;SDS011;59408;51.032;9.410;2023-04-03T02:43:52;4.22;;;1.20;;
71572;SDS011;59408;51.032;9.410;2023-04-03T02:46:19;5.90;;;1.50;;
71572;SDS011;59408;51.032;9.410;2023-04-03T02:48:46;5.20;;;1.60;;
71572;SDS011;59408;51.032;9.410;2023-04-03T02:51:12;4.50;;;1.40;;
71572;SDS011;59408;51.032;9.410;2023-04-03T02:53:39;5.00;;;1.60;;
71572;SDS011;59408;51.032;9.410;2023-04-03T02:56:07;3.67;;;1.15;;
71572;SDS011;59408;51.032;9.410;2023-04-03T02:58:35;5.82;;;1.60;;
71572;SDS011;59408;51.032;9.410;2023-04-03T03:01:02;8.90;;;1.60;;
71572;SDS011;59408;51.032;9.410;2023-04-03T03:03:28;4.18;;;1.30;;
71572;SDS011;59408;51.032;9.410;2023-04-03T03:06:02;4.03;;;1.23;;
71572;SDS011;59408;51.032;9.410;2023-04-03T03:08:29;6.45;;;1.30;;
71572;SDS011;59408;51.032;9.410;2023-04-03T03:10:56;4.60;;;1.50;;
71572;SDS011;59408;51.032;9.410;2023-04-03T03:13:23;6.10;;;1.50;;
71572;SDS011;59408;51.032;9.410;2023-04-03T03:15:51;5.70;;;1.50;;
71572;SDS011;59408;51.032;9.410;2023-04-03T03:18:17;6.60;;;1.58;;
71572;SDS011;59408;51.032;9.410;2023-04-03T03:20:44;5.38;;;1.38;;
71572;SDS011;59408;51.032;9.410;2023-04-03T03:23:11;5.95;;;1.60;;
71572;SDS011;59408;51.032;9.410;2023-04-03T03:25:38;3.93;;;1.30;;
71572;SDS011;59408;51.032;9.410;2023-04-03T03:28:05;5.60;;;1.50;;
71572;SDS011;59408;51.032;9.410;2023-04-03T03:30:31;5.55;;;1.50;;
71572;SDS011;59408;51.032;9.410;2023-04-03T03:32:59;4.63;;;1.35;;
71572;SDS011;59408;51.032;9.410;2023-04-03T03:35:26;5.55;;;1.52;;
71572;SDS011;59408;51.032;9.410;2023-04-03T03:37:53;4.57;;;1.40;;
71572;SDS011;59408;51.032;9.410;2023-04-03T03:40:19;3.95;;;1.23;;
71572;SDS011;59408;51.032;9.410;2023-04-03T03:42:46;6.65;;;1.40;;
71572;SDS011;59408;51.032;9.410;2023-04-03T03:45:12;5.05;;;1.33;;
71572;SDS011;59408;51.032;9.410;2023-04-03T03:47:39;7.90;;;1.60;;
71572;SDS011;59408;51.032;9.410;2023-04-03T03:50:08;7.13;;;1.77;;
71572;SDS011;59408;51.032;9.410;2023-04-03T03:52:35;8.63;;;1.80;;
71572;SDS011;59408;51.032;9.410;2023-04-03T03:55:01;4.57;;;1.45;;
71572;SDS011;59408;51.032;9.410;2023-04-03T03:57:28;4.80;;;1.40;;
71572;SDS011;59408;51.032;9.410;2023-04-03T03:59:55;6.45;;;1.60;;
71572;SDS011;59408;51.032;9.410;2023-04-03T04:02:22;4.43;;;1.53;;
71572;SDS011;59408;51.032;9.410;2023-04-03T04:04:48;5.18;;;1.50;;
71572;SDS011;59408;51.032;9.410;2023-04-03T04:07:17;6.60;;;2.00;;
71572;SDS011;59408;51.032;9.410;2023-04-03T04:09:43;5.97;;;1.73;;
71572;SDS011;59408;51.032;9.410;2023-04-03T04:12:10;5.60;;;1.80;;
71572;SDS011;59408;51.032;9.410;2023-04-03T04:14:37;4.77;;;1.60;;
71572;SDS011;59408;51.032;9.410;2023-04-03T04:17:03;5.70;;;1.80;;
71572;SDS011;59408;51.032;9.410;2023-04-03T04:19:30;6.53;;;1.80;;
71572;SDS011;59408;51.032;9.410;2023-04-03T04:21:57;4.05;;;1.33;;
71572;SDS011;59408;51.032;9.410;2023-04-03T04:24:25;5.68;;;1.75;;
71572;SDS011;59408;51.032;9.410;2023-04-03T04:26:51;6.83;;;1.67;;
71572;SDS011;59408;51.032;9.410;2023-04-03T04:29:18;6.22;;;1.60;;
71572;SDS011;59408;51.032;9.410;2023-04-03T04:31:44;6.13;;;1.40;;
71572;SDS011;59408;51.032;9.410;2023-04-03T04:34:11;5.45;;;1.60;;
71572;SDS011;59408;51.032;9.410;2023-04-03T04:36:38;9.57;;;2.00;;
71572;SDS011;59408;51.032;9.410;2023-04-03T04:39:05;5.70;;;1.67;;
71572;SDS011;59408;51.032;9.410;2023-04-03T04:41:33;7.10;;;1.88;;
71572;SDS011;59408;51.032;9.410;2023-04-03T04:44:00;5.30;;;1.45;;
71572;SDS011;59408;51.032;9.410;2023-04-03T04:46:26;4.25;;;1.48;;
71572;SDS011;59408;51.032;9.410;2023-04-03T04:48:53;5.53;;;1.70;;
71572;SDS011;59408;51.032;9.410;2023-04-03T04:51:19;6.57;;;1.70;;
71572;SDS011;59408;51.032;9.410;2023-04-03T04:53:46;6.03;;;1.50;;
71572;SDS011;59408;51.032;9.410;2023-04-03T04:56:13;7.20;;;1.50;;
71572;SDS011;59408;51.032;9.410;2023-04-03T04:58:41;5.07;;;1.40;;
71572;SDS011;59408;51.032;9.410;2023-04-03T05:01:09;5.95;;;1.75;;
71572;SDS011;59408;51.032;9.410;2023-04-03T05:03:36;5.20;;;1.70;;
71572;SDS011;59408;51.032;9.410;2023-04-03T05:06:03;7.07;;;1.65;;
71572;SDS011;59408;51.032;9.410;2023-04-03T05:08:30;5.80;;;1.90;;
71572;SDS011;59408;51.032;9.410;2023-04-03T05:10:57;7.97;;;2.03;;
71572;SDS011;59408;51.032;9.410;2023-04-03T05:13:24;7.70;;;2.33;;
71572;SDS011;59408;51.032;9.410;2023-04-03T05:15:52;9.43;;;2.93;;
71572;SDS011;59408;51.032;9.410;2023-04-03T05:18:18;5.93;;;2.03;;
71572;SDS011;59408;51.032;9.410;2023-04-03T05:20:47;7.03;;;1.95;;
71572;SDS011;59408;51.032;9.410;2023-04-03T05:23:14;5.95;;;2.10;;
71572;SDS011;59408;51.032;9.410;2023-04-03T05:25:41;7.53;;;2.30;;
71572;SDS011;59408;51.032;9.410;2023-04-03T05:28:08;9.23;;;2.40;;
71572;SDS011;59408;51.032;9.410;2023-04-03T05:30:34;6.85;;;2.35;;
71572;SDS011;59408;51.032;9.410;2023-04-03T05:33:02;7.00;;;2.30;;
71572;SDS011;59408;51.032;9.410;2023-04-03T05:35:29;6.47;;;2.38;;
71572;SDS011;59408;51.032;9.410;2023-04-03T05:37:56;6.85;;;2.38;;
71572;SDS011;59408;51.032;9.410;2023-04-03T05:40:22;5.50;;;2.17;;
71572;SDS011;59408;51.032;9.410;2023-04-03T05:42:49;8.10;;;2.20;;
71572;SDS011;59408;51.032;9.410;2023-04-03T05:45:16;6.28;;;2.10;;
71572;SDS011;59408;51.032;9.410;2023-04-03T05:47:42;7.18;;;2.20;;
71572;SDS011;59408;51.032;9.410;2023-04-03T05:50:11;9.60;;;2.50;;
71572;SDS011;59408;51.032;9.410;2023-04-03T05:52:38;6.50;;;2.37;;
71572;SDS011;59408;51.032;9.410;2023-04-03T05:55:09;8.57;;;2.13;;
71572;SDS011;59408;51.032;9.410;2023-04-03T05:57:35;7.35;;;2.70;;
71572;SDS011;59408;51.032;9.410;2023-04-03T06:00:03;5.35;;;2.10;;
71572;SDS011;59408;51.032;9.410;2023-04-03T06:02:30;6.75;;;2.67;;
71572;SDS011;59408;51.032;9.410;2023-04-03T06:04:56;6.27;;;2.43;;
71572;SDS011;59408;51.032;9.410;2023-04-03T06:07:24;8.10;;;2.70;;
71572;SDS011;59408;51.032;9.410;2023-04-03T06:09:52;7.03;;;2.55;;
71572;SDS011;59408;51.032;9.410;2023-04-03T06:12:19;6.25;;;2.38;;
71572;SDS011;59408;51.032;9.410;2023-04-03T06:14:46;7.00;;;2.33;;
71572;SDS011;59408;51.032;9.410;2023-04-03T06:17:12;6.90;;;2.40;;
71572;SDS011;59408;51.032;9.410;2023-04-03T06:19:39;7.85;;;2.38;;
71572;SDS011;59408;51.032;9.410;2023-04-03T06:22:06;7.78;;;2.47;;
71572;SDS011;59408;51.032;9.410;2023-04-03T06:24:34;6.88;;;2.50;;
71572;SDS011;59408;51.032;9.410;2023-04-03T06:27:01;7.40;;;2.70;;
71572;SDS011;59408;51.032;9.410;2023-04-03T06:29:27;7.53;;;2.30;;
71572;SDS011;59408;51.032;9.410;2023-04-03T06:31:54;7.45;;;2.30;;
71572;SDS011;59408;51.032;9.410;2023-04-03T06:34:21;8.43;;;2.40;;
71572;SDS011;59408;51.032;9.410;2023-04-03T06:36:48;7.40;;;2.22;;
71572;SDS011;59408;51.032;9.410;2023-04-03T06:39:16;6.78;;;2.40;;
71572;SDS011;59408;51.032;9.410;2023-04-03T06:41:45;7.17;;;2.30;;
71572;SDS011;59408;51.032;9.410;2023-04-03T06:44:12;7.60;;;2.45;;
71572;SDS011;59408;51.032;9.410;2023-04-03T06:46:39;7.75;;;2.40;;
71572;SDS011;59408;51.032;9.410;2023-04-03T06:49:06;6.53;;;2.22;;
71572;SDS011;59408;51.032;9.410;2023-04-03T06:51:33;8.68;;;2.70;;
71572;SDS011;59408;51.032;9.410;2023-04-03T06:54:00;6.60;;;2.43;;
71572;SDS011;59408;51.032;9.410;2023-04-03T06:56:27;5.75;;;2.35;;
71572;SDS011;59408;51.032;9.410;2023-04-03T06:58:56;6.18;;;2.53;;
71572;SDS011;59408;51.032;9.410;2023-04-03T07:01:23;6.78;;;2.47;;
71572;SDS011;59408;51.032;9.410;2023-04-03T07:03:51;5.82;;;2.22;;
71572;SDS011;59408;51.032;9.410;2023-04-03T07:06:18;6.73;;;2.33;;
71572;SDS011;59408;51.032;9.410;2023-04-03T07:08:46;5.88;;;2.08;;
71572;SDS011;59408;51.032;9.410;2023-04-03T07:11:13;8.02;;;2.75;;
71572;SDS011;59408;51.032;9.410;2023-04-03T07:13:40;5.93;;;1.95;;
71572;SDS011;59408;51.032;9.410;2023-04-03T07:16:08;6.80;;;2.35;;
71572;SDS011;59408;51.032;9.410;2023-04-03T07:18:35;5.50;;;2.33;;
71572;SDS011;59408;51.032;9.410;2023-04-03T07:21:02;6.30;;;2.28;;
71572;SDS011;59408;51.032;9.410;2023-04-03T07:23:30;6.97;;;2.28;;
71572;SDS011;59408;51.032;9.410;2023-04-03T07:25:57;6.40;;;2.33;;
71572;SDS011;59408;51.032;9.410;2023-04-03T07:28:23;8.60;;;2.22;;
71572;SDS011;59408;51.032;9.410;2023-04-03T07:30:51;5.90;;;2.10;;
71572;SDS011;59408;51.032;9.410;2023-04-03T07:33:21;6.88;;;2.10;;
71572;SDS011;59408;51.032;9.410;2023-04-03T07:35:48;8.68;;;2.05;;
71572;SDS011;59408;51.032;9.410;2023-04-03T07:38:15;6.03;;;2.17;;
71572;SDS011;59408;51.032;9.410;2023-04-03T07:40:45;6.93;;;2.08;;
71572;SDS011;59408;51.032;9.410;2023-04-03T07:43:12;6.50;;;2.47;;
71572;SDS011;59408;51.032;9.410;2023-04-03T07:45:38;7.25;;;2.30;;
71572;SDS011;59408;51.032;9.410;2023-04-03T07:48:05;6.45;;;2.50;;
71572;SDS011;59408;51.032;9.410;2023-04-03T07:50:33;8.38;;;2.40;;
71572;SDS011;59408;51.032;9.410;2023-04-03T07:53:00;6.15;;;2.20;;
71572;SDS011;59408;51.032;9.410;2023-04-03T07:55:26;8.47;;;2.10;;
71572;SDS011;59408;51.032;9.410;2023-04-03T07:57:53;6.18;;;2.40;;
71572;SDS011;59408;51.032;9.410;2023-04-03T08:00:20;7.70;;;2.05;;
71572;SDS011;59408;51.032;9.410;2023-04-03T08:02:47;8.55;;;2.30;;
71572;SDS011;59408;51.032;9.410;2023-04-03T08:05:13;6.68;;;2.13;;
71572;SDS011;59408;51.032;9.410;2023-04-03T08:07:41;7.20;;;2.17;;
71572;SDS011;59408;51.032;9.410;2023-04-03T08:10:08;5.93;;;1.90;;
71572;SDS011;59408;51.032;9.410;2023-04-03T08:12:35;5.95;;;1.80;;
71572;SDS011;59408;51.032;9.410;2023-04-03T08:15:02;6.10;;;2.25;;
71572;SDS011;59408;51.032;9.410;2023-04-03T08:17:29;5.57;;;2.10;;
71572;SDS011;59408;51.032;9.410;2023-04-03T08:19:56;9.23;;;2.13;;
71572;SDS011;59408;51.032;9.410;2023-04-03T08:22:23;5.10;;;1.80;;
71572;SDS011;59408;51.032;9.410;2023-04-03T08:24:51;6.57;;;1.90;;
71572;SDS011;59408;51.032;9.410;2023-04-03T08:27:25;6.40;;;2.10;;
71572;SDS011;59408;51.032;9.410;2023-04-03T08:29:52;8.43;;;2.22;;
71572;SDS011;59408;51.032;9.410;2023-04-03T08:32:19;6.73;;;2.00;;
71572;SDS011;59408;51.032;9.410;2023-04-03T08:34:45;6.18;;;2.20;;
71572;SDS011;59408;51.032;9.410;2023-04-03T08:37:12;5.88;;;1.90;;
71572;SDS011;59408;51.032;9.410;2023-04-03T08:39:39;5.72;;;1.48;;
71572;SDS011;59408;51.032;9.410;2023-04-03T08:42:11;7.07;;;1.85;;
71572;SDS011;59408;51.032;9.410;2023-04-03T08:44:46;6.40;;;1.80;;
71572;SDS011;59408;51.032;9.410;2023-04-03T08:47:20;4.75;;;1.50;;
71572;SDS011;59408;51.032;9.410;2023-04-03T08:49:51;5.82;;;1.30;;
71572;SDS011;59408;51.032;9.410;2023-04-03T08:52:20;5.18;;;1.50;;
71572;SDS011;59408;51.032;9.410;2023-04-03T08:54:55;4.80;;;1.50;;
71572;SDS011;59408;51.032;9.410;2023-04-03T08:57:28;5.07;;;1.40;;
71572;SDS011;59408;51.032;9.410;2023-04-03T08:59:57;4.85;;;1.70;;
71572;SDS011;59408;51.032;9.410;2023-04-03T09:02:26;5.25;;;1.23;;
71572;SDS011;59408;51.032;9.410;2023-04-03T09:04:57;5.22;;;1.25;;
71572;SDS011;59408;51.032;9.410;2023-04-03T09:07:26;3.25;;;1.00;;
71572;SDS011;59408;51.032;9.410;2023-04-03T09:10:00;4.30;;;1.10;;
71572;SDS011;59408;51.032;9.410;2023-04-03T09:12:33;3.75;;;1.00;;
71572;SDS011;59408;51.032;9.410;2023-04-03T09:15:06;4.30;;;1.10;;
71572;SDS011;59408;51.032;9.410;2023-04-03T09:17:41;4.50;;;1.00;;
71572;SDS011;59408;51.032;9.410;2023-04-03T09:20:17;4.03;;;0.93;;
71572;SDS011;59408;51.032;9.410;2023-04-03T09:22:50;4.50;;;1.10;;
71572;SDS011;59408;51.032;9.410;2023-04-03T09:25:19;6.32;;;1.20;;
71572;SDS011;59408;51.032;9.410;2023-04-03T09:27:49;5.93;;;1.30;;
71572;SDS011;59408;51.032;9.410;2023-04-03T09:30:18;4.07;;;0.98;;
71572;SDS011;59408;51.032;9.410;2023-04-03T09:32:47;4.40;;;1.20;;
71572;SDS011;59408;51.032;9.410;2023-04-03T09:35:16;4.60;;;1.00;;
71572;SDS011;59408;51.032;9.410;2023-04-03T09:37:58;3.58;;;1.10;;
71572;SDS011;59408;51.032;9.410;2023-04-03T09:40:35;4.30;;;1.20;;
71572;SDS011;59408;51.032;9.410;2023-04-03T09:45:54;3.55;;;0.95;;
71572;SDS011;59408;51.032;9.410;2023-04-03T09:48:23;3.50;;;0.80;;
71572;SDS011;59408;51.032;9.410;2023-04-03T09:50:54;4.13;;;0.80;;
71572;SDS011;59408;51.032;9.410;2023-04-03T09:53:31;3.78;;;0.93;;
71572;SDS011;59408;51.032;9.410;2023-04-03T09:56:03;5.13;;;0.90;;
71572;SDS011;59408;51.032;9.410;2023-04-03T09:58:33;5.05;;;1.00;;
71572;SDS011;59408;51.032;9.410;2023-04-03T10:01:23;3.70;;;0.70;;
71572;SDS011;59408;51.032;9.410;2023-04-03T10:04:04;5.00;;;0.90;;
71572;SDS011;59408;51.032;9.410;2023-04-03T10:06:34;5.05;;;1.00;;
71572;SDS011;59408;51.032;9.410;2023-04-03T10:09:03;4.50;;;0.85;;
71572;SDS011;59408;51.032;9.410;2023-04-03T10:11:39;3.65;;;0.80;;
71572;SDS011;59408;51.032;9.410;2023-04-03T10:14:25;3.87;;;0.80;;
71572;SDS011;59408;51.032;9.410;2023-04-03T10:16:53;4.88;;;1.02;;
71572;SDS011;59408;51.032;9.410;2023-04-03T10:19:31;3.38;;;0.70;;
71572;SDS011;59408;51.032;9.410;2023-04-03T10:22:02;5.18;;;1.08;;
71572;SDS011;59408;51.032;9.410;2023-04-03T10:24:49;4.03;;;0.93;;
71572;SDS011;59408;51.032;9.410;2023-04-03T10:27:22;3.43;;;0.90;;
71572;SDS011;59408;51.032;9.410;2023-04-03T10:30:01;3.38;;;0.90;;
71572;SDS011;59408;51.032;9.410;2023-04-03T10:32:38;3.83;;;0.95;;
71572;SDS011;59408;51.032;9.410;2023-04-03T10:35:14;3.88;;;0.70;;
71572;SDS011;59408;51.032;9.410;2023-04-03T10:38:00;6.35;;;1.55;;
71572;SDS011;59408;51.032;9.410;2023-04-03T10:40:33;3.45;;;0.70;;
71572;SDS011;59408;51.032;9.410;2023-04-03T10:43:13;5.73;;;0.97;;
71572;SDS011;59408;51.032;9.410;2023-04-03T10:45:51;3.70;;;0.98;;
71572;SDS011;59408;51.032;9.410;2023-04-03T10:48:25;5.72;;;0.95;;
71572;SDS011;59408;51.032;9.410;2023-04-03T10:51:16;5.70;;;1.10;;
71572;SDS011;59408;51.032;9.410;2023-04-03T10:53:54;3.47;;;0.80;;
71572;SDS011;59408;51.032;9.410;2023-04-03T10:56:30;3.83;;;0.73;;
71572;SDS011;59408;51.032;9.410;2023-04-03T10:59:02;2.55;;;0.63;;
71572;SDS011;59408;51.032;9.410;2023-04-03T11:01:39;4.28;;;1.13;;
71572;SDS011;59408;51.032;9.410;2023-04-03T11:04:08;4.63;;;1.10;;
71572;SDS011;59408;51.032;9.410;2023-04-03T11:06:38;5.13;;;0.93;;
71572;SDS011;59408;51.032;9.410;2023-04-03T11:09:15;4.10;;;1.10;;
71572;SDS011;59408;51.032;9.410;2023-04-03T11:11:47;2.60;;;0.80;;
71572;SDS011;59408;51.032;9.410;2023-04-03T11:14:17;3.80;;;0.90;;
71572;SDS011;59408;51.032;9.410;2023-04-03T11:16:52;3.85;;;0.80;;
71572;SDS011;59408;51.032;9.410;2023-04-03T11:19:29;4.20;;;0.82;;
71572;SDS011;59408;51.032;9.410;2023-04-03T11:22:03;4.13;;;0.83;;
71572;SDS011;59408;51.032;9.410;2023-04-03T11:24:36;2.63;;;0.73;;
71572;SDS011;59408;51.032;9.410;2023-04-03T11:27:08;3.80;;;0.80;;
71572;SDS011;59408;51.032;9.410;2023-04-03T11:29:41;4.68;;;0.93;;
71572;SDS011;59408;51.032;9.410;2023-04-03T11:32:15;4.15;;;1.23;;
71572;SDS011;59408;51.032;9.410;2023-04-03T11:34:56;4.03;;;0.90;;
71572;SDS011;59408;51.032;9.410;2023-04-03T11:37:28;3.88;;;0.90;;
71572;SDS011;59408;51.032;9.410;2023-04-03T11:40:04;3.03;;;0.80;;
71572;SDS011;59408;51.032;9.410;2023-04-03T11:42:36;3.45;;;0.80;;
71572;SDS011;59408;51.032;9.410;2023-04-03T11:47:52;3.77;;;0.83;;
71572;SDS011;59408;51.032;9.410;2023-04-03T11:50:39;4.50;;;0.90;;
71572;SDS011;59408;51.032;9.410;2023-04-03T11:53:25;4.38;;;1.13;;
71572;SDS011;59408;51.032;9.410;2023-04-03T11:55:58;3.83;;;0.73;;
71572;SDS011;59408;51.032;9.410;2023-04-03T11:58:30;4.25;;;1.02;;
71572;SDS011;59408;51.032;9.410;2023-04-03T12:01:05;4.37;;;0.90;;
71572;SDS011;59408;51.032;9.410;2023-04-03T12:12:31;3.90;;;0.98;;
71572;SDS011;59408;51.032;9.410;2023-04-03T12:15:17;3.67;;;1.00;;
71572;SDS011;59408;51.032;9.410;2023-04-03T12:17:50;5.68;;;0.93;;
71572;SDS011;59408;51.032;9.410;2023-04-03T12:23:23;3.63;;;0.95;;
71572;SDS011;59408;51.032;9.410;2023-04-03T12:25:50;3.10;;;0.88;;
71572;SDS011;59408;51.032;9.410;2023-04-03T12:28:19;3.87;;;0.70;;
71572;SDS011;59408;51.032;9.410;2023-04-03T12:30:46;4.15;;;0.75;;
71572;SDS011;59408;51.032;9.410;2023-04-03T12:33:17;3.17;;;0.73;;
71572;SDS011;59408;51.032;9.410;2023-04-03T12:35:57;4.95;;;1.27;;
71572;SDS011;59408;51.032;9.410;2023-04-03T12:38:41;3.65;;;1.00;;
71572;SDS011;59408;51.032;9.410;2023-04-03T12:41:19;4.87;;;0.90;;
71572;SDS011;59408;51.032;9.410;2023-04-03T12:44:03;3.97;;;0.80;;
71572;SDS011;59408;51.032;9.410;2023-04-03T12:46:42;4.07;;;1.13;;
71572;SDS011;59408;51.032;9.410;2023-04-03T12:49:14;5.95;;;0.90;;
71572;SDS011;59408;51.032;9.410;2023-04-03T12:51:50;4.10;;;0.98;;
71572;SDS011;59408;51.032;9.410;2023-04-03T12:54:18;3.93;;;0.90;;
71572;SDS011;59408;51.032;9.410;2023-04-03T12:56:48;3.72;;;1.10;;
71572;SDS011;59408;51.032;9.410;2023-04-03T12:59:18;4.88;;;0.90;;
71572;SDS011;59408;51.032;9.410;2023-04-03T13:01:52;4.55;;;0.90;;
71572;SDS011;59408;51.032;9.410;2023-04-03T13:04:21;5.57;;;1.00;;
71572;SDS011;59408;51.032;9.410;2023-04-03T13:06:48;3.80;;;0.90;;
71572;SDS011;59408;51.032;9.410;2023-04-03T13:09:19;3.50;;;1.00;;
71572;SDS011;59408;51.032;9.410;2023-04-03T13:11:48;3.92;;;0.90;;
71572;SDS011;59408;51.032;9.410;2023-04-03T13:14:18;4.20;;;1.08;;
71572;SDS011;59408;51.032;9.410;2023-04-03T13:16:52;3.85;;;1.10;;
71572;SDS011;59408;51.032;9.410;2023-04-03T13:19:22;4.80;;;1.23;;
71572;SDS011;59408;51.032;9.410;2023-04-03T13:21:49;4.10;;;1.08;;
71572;SDS011;59408;51.032;9.410;2023-04-03T13:24:23;4.85;;;1.13;;
71572;SDS011;59408;51.032;9.410;2023-04-03T13:26:50;4.63;;;1.10;;
71572;SDS011;59408;51.032;9.410;2023-04-03T13:29:21;5.15;;;1.33;;
71572;SDS011;59408;51.032;9.410;2023-04-03T13:31:57;4.37;;;1.20;;
71572;SDS011;59408;51.032;9.410;2023-04-03T13:34:26;5.18;;;1.23;;
71572;SDS011;59408;51.032;9.410;2023-04-03T13:36:55;3.78;;;0.90;;
71572;SDS011;59408;51.032;9.410;2023-04-03T13:39:24;5.50;;;0.90;;
71572;SDS011;59408;51.032;9.410;2023-04-03T13:41:53;6.20;;;1.38;;
71572;SDS011;59408;51.032;9.410;2023-04-03T13:44:31;5.17;;;1.33;;
71572;SDS011;59408;51.032;9.410;2023-04-03T13:47:01;6.00;;;1.17;;
71572;SDS011;59408;51.032;9.410;2023-04-03T13:49:41;4.70;;;1.10;;
71572;SDS011;59408;51.032;9.410;2023-04-03T13:52:21;4.50;;;1.10;;
71572;SDS011;59408;51.032;9.410;2023-04-03T13:54:51;4.38;;;1.00;;
71572;SDS011;59408;51.032;9.410;2023-04-03T13:57:22;5.80;;;1.13;;
71572;SDS011;59408;51.032;9.410;2023-04-03T13:59:51;6.80;;;1.23;;
71572;SDS011;59408;51.032;9.410;2023-04-03T14:02:19;5.03;;;1.05;;
71572;SDS011;59408;51.032;9.410;2023-04-03T14:04:50;7.47;;;1.52;;
71572;SDS011;59408;51.032;9.410;2023-04-03T14:07:19;5.18;;;1.20;;
71572;SDS011;59408;51.032;9.410;2023-04-03T14:09:45;5.07;;;1.20;;
71572;SDS011;59408;51.032;9.410;2023-04-03T14:12:13;5.05;;;1.20;;
71572;SDS011;59408;51.032;9.410;2023-04-03T14:14:57;4.70;;;1.15;;
71572;SDS011;59408;51.032;9.410;2023-04-03T14:17:25;4.53;;;1.30;;
71572;SDS011;59408;51.032;9.410;2023-04-03T14:19:54;5.05;;;1.20;;
71572;SDS011;59408;51.032;9.410;2023-04-03T14:22:23;4.73;;;1.07;;
71572;SDS011;59408;51.032;9.410;2023-04-03T14:24:51;4.93;;;1.40;;
71572;SDS011;59408;51.032;9.410;2023-04-03T14:27:19;3.90;;;1.00;;
71572;SDS011;59408;51.032;9.410;2023-04-03T14:29:47;4.35;;;1.13;;
71572;SDS011;59408;51.032;9.410;2023-04-03T14:32:18;4.07;;;1.00;;
71572;SDS011;59408;51.032;9.410;2023-04-03T14:34:46;4.20;;;0.97;;
71572;SDS011;59408;51.032;9.410;2023-04-03T14:37:14;5.35;;;1.35;;
71572;SDS011;59408;51.032;9.410;2023-04-03T14:39:42;3.80;;;1.20;;
71572;SDS011;59408;51.032;9.410;2023-04-03T14:42:13;4.03;;;1.08;;
71572;SDS011;59408;51.032;9.410;2023-04-03T14:44:41;4.35;;;1.10;;
71572;SDS011;59408;51.032;9.410;2023-04-03T14:47:09;4.57;;;1.00;;
71572;SDS011;59408;51.032;9.410;2023-04-03T14:49:54;3.97;;;1.10;;
71572;SDS011;59408;51.032;9.410;2023-04-03T14:52:21;5.03;;;1.10;;
71572;SDS011;59408;51.032;9.410;2023-04-03T14:54:50;3.33;;;0.95;;
71572;SDS011;59408;51.032;9.410;2023-04-03T14:57:17;5.40;;;1.10;;
71572;SDS011;59408;51.032;9.410;2023-04-03T14:59:45;5.30;;;1.10;;
71572;SDS011;59408;51.032;9.410;2023-04-03T15:02:22;3.97;;;1.30;;
71572;SDS011;59408;51.032;9.410;2023-04-03T15:04:53;4.55;;;1.15;;
71572;SDS011;59408;51.032;9.410;2023-04-03T15:07:20;6.00;;;1.15;;
71572;SDS011;59408;51.032;9.410;2023-04-03T15:09:48;4.88;;;1.40;;
71572;SDS011;59408;51.032;9.410;2023-04-03T15:12:15;3.70;;;1.07;;
71572;SDS011;59408;51.032;9.410;2023-04-03T15:14:41;4.72;;;1.35;;
71572;SDS011;59408;51.032;9.410;2023-04-03T15:17:22;5.78;;;1.50;;
71572;SDS011;59408;51.032;9.410;2023-04-03T15:19:49;4.30;;;1.35;;
71572;SDS011;59408;51.032;9.410;2023-04-03T15:22:20;6.35;;;1.50;;